sensor_id;sensor_type;location;lat;lon;timestamp;pressure;altitude;pressure_sealevel;temperature;humidity
15870;BME280;8034;51.442;-0.522;2022-08-04T00:00:39;101373.94;;;19.38;100.00
15870;BME280;8034;51.442;-0.522;2022-08-04T00:06:36;101370.45;;;19.32;100.00
15870;BME280;8034;51.442;-0.522;2022-08-04T00:09:09;101378.06;;;19.32;100.00
15870;BME280;8034;51.442;-0.522;2022-08-04T00:11:40;101373.52;;;19.33;100.00
15870;BME280;8034;51.442;-0.522;2022-08-04T00:17:31;101370.38;;;19.52;100.00
15870;BME280;8034;51.442;-0.522;2022-08-04T00:23:18;101372.86;;;19.62;100.00
15870;BME280;8034;51.442;-0.522;2022-08-04T00:29:02;101370.86;;;19.71;100.00
15870;BME280;8034;51.442;-0.522;2022-08-04T00:34:49;101364.53;;;19.83;100.00
15870;BME280;8034;51.442;-0.522;2022-08-04T00:40:40;101366.67;;;19.86;100.00
15870;BME280;8034;51.442;-0.522;2022-08-04T00:46:43;101366.09;;;19.86;100.00
15870;BME280;8034;51.442;-0.522;2022-08-04T00:53:02;101367.84;;;19.93;100.00
15870;BME280;8034;51.442;-0.522;2022-08-04T00:59:03;101358.56;;;20.08;100.00
15870;BME280;8034;51.442;-0.522;2022-08-04T01:05:03;101361.92;;;20.01;100.00
15870;BME280;8034;51.442;-0.522;2022-08-04T01:10:47;101357.87;;;19.96;100.00
15870;BME280;8034;51.442;-0.522;2022-08-04T01:16:46;101355.85;;;20.05;100.00
15870;BME280;8034;51.442;-0.522;2022-08-04T01:29:50;101351.95;;;20.04;100.00
15870;BME280;8034;51.442;-0.522;2022-08-04T01:35:41;101352.48;;;19.97;100.00
15870;BME280;8034;51.442;-0.522;2022-08-04T01:38:15;101356.56;;;19.93;100.00
15870;BME280;8034;51.442;-0.522;2022-08-04T01:44:02;101353.66;;;19.87;100.00
15870;BME280;8034;51.442;-0.522;2022-08-04T01:49:49;101359.91;;;19.70;100.00
15870;BME280;8034;51.442;-0.522;2022-08-04T01:55:35;101359.44;;;19.68;100.00
15870;BME280;8034;51.442;-0.522;2022-08-04T02:01:20;101361.06;;;19.69;100.00
15870;BME280;8034;51.442;-0.522;2022-08-04T02:07:29;101364.55;;;19.74;100.00
15870;BME280;8034;51.442;-0.522;2022-08-04T02:10:04;101365.80;;;19.71;100.00
15870;BME280;8034;51.442;-0.522;2022-08-04T02:12:43;101363.48;;;19.64;100.00
15870;BME280;8034;51.442;-0.522;2022-08-04T02:15:16;101358.19;;;19.63;100.00
15870;BME280;8034;51.442;-0.522;2022-08-04T02:17:50;101362.41;;;19.71;100.00
15870;BME280;8034;51.442;-0.522;2022-08-04T02:20:24;101359.86;;;19.64;100.00
15870;BME280;8034;51.442;-0.522;2022-08-04T02:22:57;101358.62;;;19.59;100.00
15870;BME280;8034;51.442;-0.522;2022-08-04T02:28:47;101353.05;;;19.56;100.00
15870;BME280;8034;51.442;-0.522;2022-08-04T02:31:24;101356.43;;;19.64;100.00
15870;BME280;8034;51.442;-0.522;2022-08-04T02:33:59;101352.88;;;19.61;100.00
15870;BME280;8034;51.442;-0.522;2022-08-04T02:39:45;101351.99;;;19.54;100.00
15870;BME280;8034;51.442;-0.522;2022-08-04T02:45:32;101347.19;;;19.55;100.00
15870;BME280;8034;51.442;-0.522;2022-08-04T02:51:23;101359.03;;;19.54;100.00
15870;BME280;8034;51.442;-0.522;2022-08-04T02:57:11;101351.75;;;19.45;100.00
15870;BME280;8034;51.442;-0.522;2022-08-04T03:03:09;101350.33;;;19.53;100.00
15870;BME280;8034;51.442;-0.522;2022-08-04T03:09:15;101358.66;;;19.39;100.00
15870;BME280;8034;51.442;-0.522;2022-08-04T03:12:16;101355.78;;;19.33;100.00
15870;BME280;8034;51.442;-0.522;2022-08-04T03:34:52;101353.47;;;18.63;100.00
15870;BME280;8034;51.442;-0.522;2022-08-04T03:41:18;101356.52;;;18.56;100.00
15870;BME280;8034;51.442;-0.522;2022-08-04T03:44:10;101357.69;;;18.44;100.00
15870;BME280;8034;51.442;-0.522;2022-08-04T04:08:20;101368.97;;;18.13;100.00
15870;BME280;8034;51.442;-0.522;2022-08-04T04:14:56;101364.02;;;18.18;100.00
15870;BME280;8034;51.442;-0.522;2022-08-04T04:21:10;101362.78;;;18.02;100.00
15870;BME280;8034;51.442;-0.522;2022-08-04T04:27:17;101365.37;;;17.90;100.00
15870;BME280;8034;51.442;-0.522;2022-08-04T04:30:05;101367.53;;;17.93;100.00
15870;BME280;8034;51.442;-0.522;2022-08-04T04:33:05;101379.94;;;17.92;100.00
15870;BME280;8034;51.442;-0.522;2022-08-04T04:39:05;101371.09;;;17.65;100.00
15870;BME280;8034;51.442;-0.522;2022-08-04T04:41:48;101378.97;;;17.52;100.00
15870;BME280;8034;51.442;-0.522;2022-08-04T04:44:29;101380.02;;;17.79;100.00
15870;BME280;8034;51.442;-0.522;2022-08-04T04:47:03;101382.63;;;17.86;100.00
15870;BME280;8034;51.442;-0.522;2022-08-04T04:49:39;101385.52;;;17.84;100.00
15870;BME280;8034;51.442;-0.522;2022-08-04T04:52:12;101390.67;;;17.68;100.00
15870;BME280;8034;51.442;-0.522;2022-08-04T04:58:01;101399.14;;;17.43;100.00
15870;BME280;8034;51.442;-0.522;2022-08-04T05:04:12;101391.25;;;17.67;100.00
15870;BME280;8034;51.442;-0.522;2022-08-04T05:06:52;101406.16;;;17.43;100.00
15870;BME280;8034;51.442;-0.522;2022-08-04T05:09:28;101403.42;;;17.52;100.00
15870;BME280;8034;51.442;-0.522;2022-08-04T05:15:33;101405.52;;;17.46;100.00
15870;BME280;8034;51.442;-0.522;2022-08-04T05:21:27;101413.86;;;17.73;100.00
15870;BME280;8034;51.442;-0.522;2022-08-04T05:23:59;101423.63;;;17.76;100.00
15870;BME280;8034;51.442;-0.522;2022-08-04T05:29:50;101428.88;;;17.58;100.00
15870;BME280;8034;51.442;-0.522;2022-08-04T05:35:40;101425.37;;;17.74;100.00
15870;BME280;8034;51.442;-0.522;2022-08-04T05:41:27;101420.80;;;17.98;100.00
15870;BME280;8034;51.442;-0.522;2022-08-04T05:47:14;101422.55;;;17.97;100.00
15870;BME280;8034;51.442;-0.522;2022-08-04T05:53:01;101422.16;;;17.90;100.00
15870;BME280;8034;51.442;-0.522;2022-08-04T05:58:47;101427.84;;;18.09;100.00
15870;BME280;8034;51.442;-0.522;2022-08-04T06:04:36;101429.47;;;18.10;100.00
15870;BME280;8034;51.442;-0.522;2022-08-04T06:10:21;101433.12;;;18.11;100.00
15870;BME280;8034;51.442;-0.522;2022-08-04T06:16:09;101433.13;;;18.22;100.00
15870;BME280;8034;51.442;-0.522;2022-08-04T06:21:56;101436.45;;;18.13;100.00
15870;BME280;8034;51.442;-0.522;2022-08-04T06:27:43;101432.47;;;18.25;100.00
15870;BME280;8034;51.442;-0.522;2022-08-04T06:33:31;101437.61;;;18.32;100.00
15870;BME280;8034;51.442;-0.522;2022-08-04T06:39:17;101436.73;;;18.34;100.00
15870;BME280;8034;51.442;-0.522;2022-08-04T06:45:07;101448.47;;;18.36;100.00
15870;BME280;8034;51.442;-0.522;2022-08-04T06:50:54;101447.31;;;18.48;100.00
15870;BME280;8034;51.442;-0.522;2022-08-04T06:56:40;101461.85;;;18.52;100.00
15870;BME280;8034;51.442;-0.522;2022-08-04T07:02:28;101470.58;;;18.51;100.00
15870;BME280;8034;51.442;-0.522;2022-08-04T07:08:13;101468.02;;;18.52;100.00
15870;BME280;8034;51.442;-0.522;2022-08-04T07:13:59;101478.13;;;18.64;100.00
15870;BME280;8034;51.442;-0.522;2022-08-04T07:19:45;101475.27;;;18.55;100.00
15870;BME280;8034;51.442;-0.522;2022-08-04T07:25:29;101477.55;;;18.64;100.00
15870;BME280;8034;51.442;-0.522;2022-08-04T07:31:17;101476.75;;;19.01;100.00
15870;BME280;8034;51.442;-0.522;2022-08-04T07:37:05;101475.46;;;20.04;100.00
15870;BME280;8034;51.442;-0.522;2022-08-04T07:42:49;101471.06;;;20.09;100.00
15870;BME280;8034;51.442;-0.522;2022-08-04T07:48:35;101471.99;;;19.73;100.00
15870;BME280;8034;51.442;-0.522;2022-08-04T07:54:21;101461.58;;;21.15;100.00
15870;BME280;8034;51.442;-0.522;2022-08-04T08:00:08;101457.34;;;21.51;100.00
15870;BME280;8034;51.442;-0.522;2022-08-04T08:05:53;101457.55;;;21.66;100.00
15870;BME280;8034;51.442;-0.522;2022-08-04T08:11:39;101463.33;;;21.70;100.00
15870;BME280;8034;51.442;-0.522;2022-08-04T08:17:24;101458.10;;;21.87;100.00
15870;BME280;8034;51.442;-0.522;2022-08-04T08:23:08;101464.50;;;22.16;100.00
15870;BME280;8034;51.442;-0.522;2022-08-04T08:28:53;101459.51;;;22.46;100.00
15870;BME280;8034;51.442;-0.522;2022-08-04T08:34:38;101458.59;;;22.60;100.00
15870;BME280;8034;51.442;-0.522;2022-08-04T08:40:30;101450.95;;;22.67;100.00
15870;BME280;8034;51.442;-0.522;2022-08-04T08:46:38;101450.16;;;22.79;100.00
15870;BME280;8034;51.442;-0.522;2022-08-04T08:55:47;101457.13;;;23.05;100.00
15870;BME280;8034;51.442;-0.522;2022-08-04T09:06:00;101459.83;;;23.08;100.00
15870;BME280;8034;51.442;-0.522;2022-08-04T09:12:20;101470.46;;;23.17;100.00
15870;BME280;8034;51.442;-0.522;2022-08-04T09:18:09;101460.77;;;23.12;100.00
15870;BME280;8034;51.442;-0.522;2022-08-04T09:20:44;101463.73;;;23.09;100.00
15870;BME280;8034;51.442;-0.522;2022-08-04T09:23:23;101465.51;;;23.14;100.00
15870;BME280;8034;51.442;-0.522;2022-08-04T09:25:57;101471.39;;;23.15;100.00
15870;BME280;8034;51.442;-0.522;2022-08-04T09:31:45;101471.77;;;23.13;100.00
15870;BME280;8034;51.442;-0.522;2022-08-04T09:34:19;101477.06;;;23.15;100.00
15870;BME280;8034;51.442;-0.522;2022-08-04T09:36:52;101478.27;;;23.14;100.00
15870;BME280;8034;51.442;-0.522;2022-08-04T09:39:27;101475.05;;;23.15;100.00
15870;BME280;8034;51.442;-0.522;2022-08-04T09:42:16;101476.94;;;23.24;100.00
15870;BME280;8034;51.442;-0.522;2022-08-04T09:44:41;101479.56;;;23.23;100.00
15870;BME280;8034;51.442;-0.522;2022-08-04T09:47:13;101481.20;;;23.18;100.00
15870;BME280;8034;51.442;-0.522;2022-08-04T09:49:49;101482.02;;;23.24;100.00
15870;BME280;8034;51.442;-0.522;2022-08-04T09:52:25;101480.59;;;23.24;100.00
15870;BME280;8034;51.442;-0.522;2022-08-04T09:55:01;101483.09;;;23.26;100.00
15870;BME280;8034;51.442;-0.522;2022-08-04T09:57:40;101485.09;;;23.25;100.00
15870;BME280;8034;51.442;-0.522;2022-08-04T10:03:28;101488.05;;;23.35;100.00
15870;BME280;8034;51.442;-0.522;2022-08-04T10:09:33;101492.54;;;23.36;100.00
15870;BME280;8034;51.442;-0.522;2022-08-04T10:15:26;101492.89;;;23.40;100.00
15870;BME280;8034;51.442;-0.522;2022-08-04T10:18:06;101490.40;;;23.39;100.00
15870;BME280;8034;51.442;-0.522;2022-08-04T10:27:50;101501.63;;;23.35;100.00
15870;BME280;8034;51.442;-0.522;2022-08-04T10:33:38;101496.91;;;23.45;100.00
15870;BME280;8034;51.442;-0.522;2022-08-04T10:39:28;101504.72;;;23.48;100.00
15870;BME280;8034;51.442;-0.522;2022-08-04T10:42:05;101508.84;;;23.45;100.00
15870;BME280;8034;51.442;-0.522;2022-08-04T10:44:39;101508.98;;;23.48;100.00
15870;BME280;8034;51.442;-0.522;2022-08-04T10:47:14;101506.95;;;23.55;100.00
15870;BME280;8034;51.442;-0.522;2022-08-04T10:53:03;101503.73;;;23.63;100.00
15870;BME280;8034;51.442;-0.522;2022-08-04T10:58:53;101490.97;;;23.69;100.00
15870;BME280;8034;51.442;-0.522;2022-08-04T11:04:44;101506.42;;;23.71;100.00
15870;BME280;8034;51.442;-0.522;2022-08-04T11:10:34;101499.23;;;23.74;100.00
15870;BME280;8034;51.442;-0.522;2022-08-04T11:16:23;101506.08;;;23.67;100.00
15870;BME280;8034;51.442;-0.522;2022-08-04T11:22:14;101513.41;;;23.68;100.00
15870;BME280;8034;51.442;-0.522;2022-08-04T11:24:49;101516.59;;;23.72;100.00
15870;BME280;8034;51.442;-0.522;2022-08-04T11:27:24;101516.42;;;23.53;100.00
15870;BME280;8034;51.442;-0.522;2022-08-04T11:30:00;101514.59;;;23.67;100.00
15870;BME280;8034;51.442;-0.522;2022-08-04T11:32:35;101517.08;;;23.68;100.00
15870;BME280;8034;51.442;-0.522;2022-08-04T11:35:09;101517.73;;;23.83;100.00
15870;BME280;8034;51.442;-0.522;2022-08-04T11:37:45;101522.86;;;23.78;100.00
15870;BME280;8034;51.442;-0.522;2022-08-04T11:40:21;101510.69;;;23.71;100.00
15870;BME280;8034;51.442;-0.522;2022-08-04T11:42:55;101508.78;;;23.81;100.00
15870;BME280;8034;51.442;-0.522;2022-08-04T11:45:30;101507.55;;;23.94;100.00
15870;BME280;8034;51.442;-0.522;2022-08-04T11:51:16;101507.16;;;24.02;100.00
15870;BME280;8034;51.442;-0.522;2022-08-04T11:57:06;101516.66;;;23.88;100.00
15870;BME280;8034;51.442;-0.522;2022-08-04T12:03:13;101521.16;;;23.89;100.00
15870;BME280;8034;51.442;-0.522;2022-08-04T12:09:20;101531.20;;;23.92;100.00
15870;BME280;8034;51.442;-0.522;2022-08-04T12:15:19;101521.20;;;23.83;100.00
15870;BME280;8034;51.442;-0.522;2022-08-04T12:18:07;101530.99;;;23.79;100.00
15870;BME280;8034;51.442;-0.522;2022-08-04T12:23:43;101527.56;;;23.86;100.00
15870;BME280;8034;51.442;-0.522;2022-08-04T12:29:33;101521.75;;;23.88;100.00
15870;BME280;8034;51.442;-0.522;2022-08-04T12:35:28;101514.27;;;24.02;100.00
15870;BME280;8034;51.442;-0.522;2022-08-04T12:41:20;101515.49;;;24.29;100.00
15870;BME280;8034;51.442;-0.522;2022-08-04T12:47:11;101517.32;;;24.15;100.00
15870;BME280;8034;51.442;-0.522;2022-08-04T12:52:59;101525.27;;;24.03;100.00
15870;BME280;8034;51.442;-0.522;2022-08-04T12:58:48;101522.54;;;24.01;100.00
15870;BME280;8034;51.442;-0.522;2022-08-04T13:04:36;101525.51;;;24.04;100.00
15870;BME280;8034;51.442;-0.522;2022-08-04T13:10:32;101520.09;;;24.33;100.00
15870;BME280;8034;51.442;-0.522;2022-08-04T13:16:20;101512.18;;;24.48;100.00
15870;BME280;8034;51.442;-0.522;2022-08-04T13:22:07;101522.03;;;24.45;100.00
15870;BME280;8034;51.442;-0.522;2022-08-04T13:27:53;101520.94;;;24.49;100.00
15870;BME280;8034;51.442;-0.522;2022-08-04T13:33:42;101520.75;;;24.42;100.00
15870;BME280;8034;51.442;-0.522;2022-08-04T13:39:29;101516.61;;;24.40;100.00
15870;BME280;8034;51.442;-0.522;2022-08-04T13:45:20;101515.76;;;24.45;100.00
15870;BME280;8034;51.442;-0.522;2022-08-04T13:51:10;101504.58;;;24.53;100.00
15870;BME280;8034;51.442;-0.522;2022-08-04T13:56:58;101515.49;;;24.29;100.00
15870;BME280;8034;51.442;-0.522;2022-08-04T14:02:48;101516.27;;;24.35;100.00
15870;BME280;8034;51.442;-0.522;2022-08-04T14:08:41;101512.77;;;24.26;100.00
15870;BME280;8034;51.442;-0.522;2022-08-04T14:14:25;101508.97;;;24.34;100.00
15870;BME280;8034;51.442;-0.522;2022-08-04T14:20:15;101513.59;;;24.27;100.00
15870;BME280;8034;51.442;-0.522;2022-08-04T14:26:01;101511.58;;;24.27;100.00
15870;BME280;8034;51.442;-0.522;2022-08-04T14:31:49;101512.83;;;24.42;100.00
15870;BME280;8034;51.442;-0.522;2022-08-04T14:37:56;101516.11;;;24.44;100.00
15870;BME280;8034;51.442;-0.522;2022-08-04T14:43:48;101512.44;;;24.43;100.00
15870;BME280;8034;51.442;-0.522;2022-08-04T14:49:36;101507.49;;;24.62;100.00
15870;BME280;8034;51.442;-0.522;2022-08-04T14:55:28;101498.82;;;24.65;100.00
15870;BME280;8034;51.442;-0.522;2022-08-04T15:01:17;101516.49;;;24.42;100.00
15870;BME280;8034;51.442;-0.522;2022-08-04T15:07:05;101512.73;;;24.38;100.00
15870;BME280;8034;51.442;-0.522;2022-08-04T15:12:55;101515.78;;;24.39;100.00
15870;BME280;8034;51.442;-0.522;2022-08-04T15:18:44;101513.48;;;24.51;100.00
15870;BME280;8034;51.442;-0.522;2022-08-04T15:24:36;101515.28;;;24.65;100.00
15870;BME280;8034;51.442;-0.522;2022-08-04T15:30:26;101514.74;;;24.60;100.00
15870;BME280;8034;51.442;-0.522;2022-08-04T15:36:34;101525.44;;;24.72;100.00
15870;BME280;8034;51.442;-0.522;2022-08-04T15:39:02;101531.64;;;24.62;100.00
15870;BME280;8034;51.442;-0.522;2022-08-04T15:41:46;101533.89;;;24.63;100.00
15870;BME280;8034;51.442;-0.522;2022-08-04T15:54:27;101527.38;;;24.40;100.00
15870;BME280;8034;51.442;-0.522;2022-08-04T16:00:14;101534.15;;;24.58;100.00
15870;BME280;8034;51.442;-0.522;2022-08-04T16:06:00;101539.92;;;24.39;100.00
15870;BME280;8034;51.442;-0.522;2022-08-04T16:11:49;101539.26;;;24.52;100.00
15870;BME280;8034;51.442;-0.522;2022-08-04T16:17:46;101539.98;;;24.55;100.00
15870;BME280;8034;51.442;-0.522;2022-08-04T16:23:58;101543.48;;;24.42;100.00
15870;BME280;8034;51.442;-0.522;2022-08-04T16:30:06;101546.31;;;24.42;100.00
15870;BME280;8034;51.442;-0.522;2022-08-04T16:36:01;101549.34;;;24.49;100.00
15870;BME280;8034;51.442;-0.522;2022-08-04T16:45:00;101557.11;;;24.59;100.00
15870;BME280;8034;51.442;-0.522;2022-08-04T16:51:22;101551.85;;;24.45;100.00
15870;BME280;8034;51.442;-0.522;2022-08-04T16:57:09;101560.69;;;24.28;100.00
15870;BME280;8034;51.442;-0.522;2022-08-04T17:03:01;101557.20;;;24.40;100.00
15870;BME280;8034;51.442;-0.522;2022-08-04T17:08:49;101562.86;;;24.46;100.00
15870;BME280;8034;51.442;-0.522;2022-08-04T17:14:38;101565.21;;;24.51;100.00
15870;BME280;8034;51.442;-0.522;2022-08-04T17:20:27;101564.39;;;24.44;100.00
15870;BME280;8034;51.442;-0.522;2022-08-04T17:26:23;101568.87;;;24.11;100.00
15870;BME280;8034;51.442;-0.522;2022-08-04T17:32:16;101557.41;;;24.20;100.00
15870;BME280;8034;51.442;-0.522;2022-08-04T17:38:05;101570.30;;;24.11;100.00
15870;BME280;8034;51.442;-0.522;2022-08-04T17:44:05;101569.55;;;24.32;100.00
15870;BME280;8034;51.442;-0.522;2022-08-04T17:49:51;101576.95;;;23.97;100.00
15870;BME280;8034;51.442;-0.522;2022-08-04T17:55:41;101576.20;;;24.18;100.00
15870;BME280;8034;51.442;-0.522;2022-08-04T18:01:44;101574.73;;;24.30;100.00
15870;BME280;8034;51.442;-0.522;2022-08-04T18:07:42;101571.81;;;24.15;100.00
15870;BME280;8034;51.442;-0.522;2022-08-04T18:13:28;101577.25;;;23.74;100.00
15870;BME280;8034;51.442;-0.522;2022-08-04T18:19:18;101582.66;;;23.85;100.00
15870;BME280;8034;51.442;-0.522;2022-08-04T18:28:12;101582.47;;;23.66;100.00
15870;BME280;8034;51.442;-0.522;2022-08-04T18:30:42;101581.61;;;23.77;100.00
15870;BME280;8034;51.442;-0.522;2022-08-04T18:33:13;101579.09;;;23.94;100.00
15870;BME280;8034;51.442;-0.522;2022-08-04T18:35:44;101589.03;;;24.00;100.00
15870;BME280;8034;51.442;-0.522;2022-08-04T18:38:15;101594.78;;;24.10;100.00
15870;BME280;8034;51.442;-0.522;2022-08-04T18:40:46;101592.11;;;23.95;100.00
15870;BME280;8034;51.442;-0.522;2022-08-04T18:43:17;101591.52;;;23.83;100.00
15870;BME280;8034;51.442;-0.522;2022-08-04T18:45:48;101593.08;;;23.63;100.00
15870;BME280;8034;51.442;-0.522;2022-08-04T18:48:20;101593.34;;;23.57;100.00
15870;BME280;8034;51.442;-0.522;2022-08-04T18:50:51;101600.66;;;23.65;100.00
15870;BME280;8034;51.442;-0.522;2022-08-04T18:53:23;101600.42;;;23.51;100.00
15870;BME280;8034;51.442;-0.522;2022-08-04T18:55:54;101602.05;;;23.71;100.00
15870;BME280;8034;51.442;-0.522;2022-08-04T18:58:25;101602.17;;;23.80;100.00
15870;BME280;8034;51.442;-0.522;2022-08-04T19:00:57;101609.02;;;23.79;100.00
15870;BME280;8034;51.442;-0.522;2022-08-04T19:03:28;101610.83;;;23.66;100.00
15870;BME280;8034;51.442;-0.522;2022-08-04T19:09:13;101613.64;;;23.53;100.00
15870;BME280;8034;51.442;-0.522;2022-08-04T19:15:00;101622.97;;;23.36;100.00
15870;BME280;8034;51.442;-0.522;2022-08-04T19:20:46;101628.48;;;23.20;100.00
15870;BME280;8034;51.442;-0.522;2022-08-04T19:26:33;101626.27;;;23.38;100.00
15870;BME280;8034;51.442;-0.522;2022-08-04T19:32:23;101640.00;;;23.54;100.00
15870;BME280;8034;51.442;-0.522;2022-08-04T19:38:15;101643.44;;;23.47;100.00
15870;BME280;8034;51.442;-0.522;2022-08-04T19:44:03;101654.01;;;23.32;100.00
15870;BME280;8034;51.442;-0.522;2022-08-04T19:49:49;101655.14;;;23.07;100.00
15870;BME280;8034;51.442;-0.522;2022-08-04T19:55:35;101656.98;;;22.85;100.00
15870;BME280;8034;51.442;-0.522;2022-08-04T20:01:21;101666.53;;;22.80;100.00
15870;BME280;8034;51.442;-0.522;2022-08-04T20:07:07;101671.78;;;22.69;100.00
15870;BME280;8034;51.442;-0.522;2022-08-04T20:12:53;101688.26;;;21.44;100.00
15870;BME280;8034;51.442;-0.522;2022-08-04T20:18:41;101686.30;;;21.13;100.00
15870;BME280;8034;51.442;-0.522;2022-08-04T20:24:27;101688.37;;;20.93;100.00
15870;BME280;8034;51.442;-0.522;2022-08-04T20:30:14;101693.55;;;20.82;100.00
15870;BME280;8034;51.442;-0.522;2022-08-04T20:36:00;101703.44;;;20.82;100.00
15870;BME280;8034;51.442;-0.522;2022-08-04T20:41:47;101710.09;;;20.60;100.00
15870;BME280;8034;51.442;-0.522;2022-08-04T20:47:34;101711.23;;;20.42;100.00
15870;BME280;8034;51.442;-0.522;2022-08-04T20:53:22;101712.38;;;20.41;100.00
15870;BME280;8034;51.442;-0.522;2022-08-04T20:59:08;101721.53;;;20.10;100.00
15870;BME280;8034;51.442;-0.522;2022-08-04T21:04:55;101721.57;;;19.98;100.00
15870;BME280;8034;51.442;-0.522;2022-08-04T21:10:41;101725.29;;;19.88;100.00
15870;BME280;8034;51.442;-0.522;2022-08-04T21:16:26;101728.94;;;19.69;100.00
15870;BME280;8034;51.442;-0.522;2022-08-04T21:22:12;101748.01;;;19.41;100.00
15870;BME280;8034;51.442;-0.522;2022-08-04T21:28:01;101751.66;;;19.52;100.00
15870;BME280;8034;51.442;-0.522;2022-08-04T21:33:47;101751.09;;;19.53;100.00
15870;BME280;8034;51.442;-0.522;2022-08-04T21:39:32;101749.54;;;19.58;100.00
15870;BME280;8034;51.442;-0.522;2022-08-04T21:45:17;101756.45;;;19.63;100.00
15870;BME280;8034;51.442;-0.522;2022-08-04T21:51:15;101755.27;;;19.44;100.00
15870;BME280;8034;51.442;-0.522;2022-08-04T21:57:00;101757.43;;;19.47;100.00
15870;BME280;8034;51.442;-0.522;2022-08-04T22:02:45;101765.52;;;19.29;100.00
15870;BME280;8034;51.442;-0.522;2022-08-04T22:08:30;101775.83;;;19.34;100.00
15870;BME280;8034;51.442;-0.522;2022-08-04T22:14:15;101772.74;;;19.33;100.00
15870;BME280;8034;51.442;-0.522;2022-08-04T22:20:00;101769.36;;;19.44;100.00
15870;BME280;8034;51.442;-0.522;2022-08-04T22:25:47;101769.88;;;19.46;100.00
15870;BME280;8034;51.442;-0.522;2022-08-04T22:31:32;101774.11;;;19.46;100.00
15870;BME280;8034;51.442;-0.522;2022-08-04T22:37:19;101777.30;;;19.20;100.00
15870;BME280;8034;51.442;-0.522;2022-08-04T22:43:03;101779.53;;;19.32;100.00
15870;BME280;8034;51.442;-0.522;2022-08-04T22:48:49;101780.23;;;19.37;100.00
15870;BME280;8034;51.442;-0.522;2022-08-04T22:54:34;101779.33;;;19.17;100.00
15870;BME280;8034;51.442;-0.522;2022-08-04T23:00:21;101792.98;;;19.24;100.00
15870;BME280;8034;51.442;-0.522;2022-08-04T23:06:07;101786.20;;;19.25;100.00
15870;BME280;8034;51.442;-0.522;2022-08-04T23:11:52;101788.57;;;19.20;100.00
15870;BME280;8034;51.442;-0.522;2022-08-04T23:17:37;101785.12;;;19.12;100.00
15870;BME280;8034;51.442;-0.522;2022-08-04T23:23:24;101799.13;;;19.15;100.00
15870;BME280;8034;51.442;-0.522;2022-08-04T23:29:09;101803.28;;;19.06;100.00
15870;BME280;8034;51.442;-0.522;2022-08-04T23:34:54;101810.39;;;19.03;100.00
15870;BME280;8034;51.442;-0.522;2022-08-04T23:40:40;101812.30;;;19.05;100.00
15870;BME280;8034;51.442;-0.522;2022-08-04T23:46:25;101815.72;;;18.69;100.00
15870;BME280;8034;51.442;-0.522;2022-08-04T23:52:09;101822.66;;;18.85;100.00
15870;BME280;8034;51.442;-0.522;2022-08-04T23:57:54;101822.00;;;18.77;100.00
